createdAt,value
2022-10-31T00:01:13.298Z,6.40
2022-10-31T00:03:40.715Z,6.57
2022-10-31T00:06:09.623Z,7.50
2022-10-31T00:08:37.414Z,6.82
2022-10-31T00:11:05.085Z,6.78
2022-10-31T00:13:33.151Z,6.68
2022-10-31T00:16:00.575Z,7.15
2022-10-31T00:18:28.074Z,7.13
2022-10-31T00:21:01.393Z,7.18
2022-10-31T00:23:30.370Z,6.43
2022-10-31T00:26:06.245Z,7.85
2022-10-31T00:28:33.724Z,7.55
2022-10-31T00:31:01.943Z,7.28
2022-10-31T00:33:31.625Z,6.68
2022-10-31T00:35:59.134Z,6.80
2022-10-31T00:38:26.599Z,6.95
2022-10-31T00:40:55.405Z,6.35
2022-10-31T00:43:23.114Z,6.50
2022-10-31T00:45:50.733Z,7.70
2022-10-31T00:48:18.245Z,6.43
2022-10-31T00:50:45.733Z,6.32
2022-10-31T00:53:13.224Z,7.15
2022-10-31T00:55:40.665Z,6.68
2022-10-31T00:58:09.475Z,7.07
2022-10-31T01:00:37.038Z,6.97
2022-10-31T01:03:04.706Z,6.65
2022-10-31T01:05:32.555Z,7.55
2022-10-31T01:08:00.445Z,7.38
2022-10-31T01:10:27.956Z,7.25
2022-10-31T01:12:55.417Z,7.88
2022-10-31T01:15:24.642Z,7.72
2022-10-31T01:17:52.164Z,7.40
2022-10-31T01:20:19.815Z,7.68
2022-10-31T01:22:47.351Z,8.20
2022-10-31T01:25:14.890Z,7.78
2022-10-31T01:27:42.321Z,7.90
2022-10-31T01:30:10.696Z,7.28
2022-10-31T01:32:39.442Z,6.72
2022-10-31T01:35:07.227Z,7.32
2022-10-31T01:37:34.737Z,8.07
2022-10-31T01:40:02.193Z,6.50
2022-10-31T01:42:29.623Z,6.68
2022-10-31T01:45:02.589Z,6.38
2022-10-31T01:47:40.628Z,6.65
2022-10-31T01:50:16.004Z,6.53
2022-10-31T01:52:46.572Z,7.78
2022-10-31T01:55:17.737Z,7.25
2022-10-31T01:57:47.931Z,7.20
2022-10-31T02:00:16.324Z,6.97
2022-10-31T02:02:44.516Z,7.28
2022-10-31T02:05:19.234Z,6.82
2022-10-31T02:07:53.073Z,7.68
2022-10-31T02:10:23.018Z,7.38
2022-10-31T02:12:53.276Z,8.25
2022-10-31T02:15:20.857Z,7.80
2022-10-31T02:17:48.606Z,7.25
2022-10-31T02:20:20.832Z,7.63
2022-10-31T02:23:27.465Z,7.75
2022-10-31T02:26:25.351Z,7.97
2022-10-31T02:29:25.295Z,7.20
2022-10-31T02:32:02.479Z,7.85
2022-10-31T02:34:37.258Z,8.05
2022-10-31T02:37:12.753Z,7.57
2022-10-31T02:39:49.343Z,7.90
2022-10-31T02:42:23.764Z,8.75
2022-10-31T02:44:57.085Z,8.18
2022-10-31T02:47:29.939Z,8.35
2022-10-31T02:50:01.499Z,8.82
2022-10-31T02:52:31.490Z,8.82
2022-10-31T02:54:59.197Z,8.57
2022-10-31T02:57:30.348Z,8.43
2022-10-31T03:00:02.532Z,8.98
2022-10-31T03:02:52.975Z,10.07
2022-10-31T03:05:42.290Z,9.82
2022-10-31T03:08:19.143Z,9.63
2022-10-31T03:10:53.123Z,9.40
2022-10-31T03:13:27.235Z,8.18
2022-10-31T03:16:00.979Z,10.07
2022-10-31T03:18:34.551Z,8.25
2022-10-31T03:21:06.855Z,8.68
2022-10-31T03:23:37.790Z,8.75
2022-10-31T03:26:08.138Z,8.82
2022-10-31T03:28:43.122Z,8.77
2022-10-31T03:31:13.632Z,8.95
2022-10-31T03:33:44.598Z,8.90
2022-10-31T03:36:14.852Z,9.07
2022-10-31T03:38:44.860Z,9.45
2022-10-31T03:41:16.148Z,8.85
2022-10-31T03:43:51.533Z,8.55
2022-10-31T03:46:19.540Z,9.00
2022-10-31T03:48:48.351Z,9.48
2022-10-31T03:51:22.963Z,9.38
2022-10-31T03:53:57.727Z,9.30
2022-10-31T03:56:32.604Z,9.00
2022-10-31T03:59:06.190Z,9.00
2022-10-31T04:01:39.489Z,8.95
2022-10-31T04:04:08.834Z,9.68
2022-10-31T04:06:37.517Z,9.05
2022-10-31T04:09:08.449Z,9.05
2022-10-31T04:11:40.081Z,9.82
2022-10-31T04:14:08.900Z,8.55
2022-10-31T04:16:36.538Z,9.95
2022-10-31T04:19:04.010Z,8.98
2022-10-31T04:21:32.845Z,8.88
2022-10-31T04:24:00.308Z,10.48
2022-10-31T04:26:27.882Z,10.43
2022-10-31T04:28:55.308Z,10.32
2022-10-31T04:31:22.887Z,8.93
2022-10-31T04:33:50.315Z,9.38
2022-10-31T04:36:17.765Z,9.68
2022-10-31T04:38:46.529Z,8.80
2022-10-31T04:41:13.940Z,9.40
2022-10-31T04:43:41.364Z,9.57
2022-10-31T04:46:08.790Z,9.63
2022-10-31T04:48:36.229Z,10.18
2022-10-31T04:51:04.830Z,10.07
2022-10-31T04:53:32.324Z,9.18
2022-10-31T04:56:01.586Z,9.57
2022-10-31T04:58:29.134Z,9.43
2022-10-31T05:00:57.446Z,9.88
2022-10-31T05:03:25.129Z,9.57
2022-10-31T05:05:52.686Z,9.85
2022-10-31T05:08:20.108Z,10.30
2022-10-31T05:10:47.504Z,10.20
2022-10-31T05:13:16.654Z,10.65
2022-10-31T05:15:44.119Z,10.73
2022-10-31T05:18:11.656Z,10.57
2022-10-31T05:20:39.076Z,10.45
2022-10-31T05:23:06.547Z,10.35
2022-10-31T05:25:34.026Z,10.85
2022-10-31T05:28:01.722Z,10.43
2022-10-31T05:30:32.808Z,10.45
2022-10-31T05:33:00.566Z,10.13
2022-10-31T05:35:30.917Z,9.23
2022-10-31T05:37:59.514Z,9.35
2022-10-31T05:40:28.445Z,8.50
2022-10-31T05:42:57.741Z,9.48
2022-10-31T05:45:27.626Z,9.75
2022-10-31T05:47:58.073Z,8.75
2022-10-31T05:50:27.635Z,9.93
2022-10-31T05:53:00.902Z,11.05
2022-10-31T05:55:29.119Z,11.70
2022-10-31T05:57:57.352Z,10.77
2022-10-31T06:00:26.698Z,11.52
2022-10-31T06:03:01.651Z,11.40
2022-10-31T06:07:56.915Z,11.43
2022-10-31T06:10:24.606Z,10.05
2022-10-31T06:12:52.227Z,10.35
2022-10-31T06:15:24.081Z,10.82
2022-10-31T06:18:02.330Z,10.93
2022-10-31T06:20:30.171Z,10.43
2022-10-31T06:22:57.911Z,11.18
2022-10-31T06:25:25.807Z,10.40
2022-10-31T06:27:53.263Z,11.85
2022-10-31T06:30:20.815Z,10.38
2022-10-31T06:32:48.273Z,10.57
2022-10-31T06:35:17.300Z,10.75
2022-10-31T06:37:46.861Z,11.45
2022-10-31T06:40:17.934Z,9.85
2022-10-31T06:42:45.365Z,10.98
2022-10-31T06:45:12.799Z,10.45
2022-10-31T06:47:50.943Z,12.18
2022-10-31T06:50:25.900Z,11.02
2022-10-31T06:52:53.922Z,10.57
2022-10-31T06:55:23.476Z,11.55
2022-10-31T06:57:56.507Z,11.55
2022-10-31T07:00:28.246Z,11.02
2022-10-31T07:02:56.836Z,9.73
2022-10-31T07:05:26.217Z,9.18
2022-10-31T07:07:54.673Z,9.63
2022-10-31T07:10:22.494Z,10.23
2022-10-31T07:12:49.896Z,9.73
2022-10-31T07:15:17.382Z,9.57
2022-10-31T07:17:44.816Z,9.88
2022-10-31T07:20:12.521Z,10.77
2022-10-31T07:22:41.439Z,9.60
2022-10-31T07:25:09.739Z,9.45
2022-10-31T07:27:41.724Z,10.10
2022-10-31T07:30:14.901Z,12.63
2022-10-31T07:32:43.420Z,10.40
2022-10-31T07:35:12.814Z,9.52
2022-10-31T07:37:41.785Z,9.02
2022-10-31T07:40:10.875Z,8.55
2022-10-31T07:42:39.277Z,8.30
2022-10-31T07:45:08.404Z,9.88
2022-10-31T07:47:40.254Z,8.80
2022-10-31T07:50:08.524Z,9.05
2022-10-31T07:52:36.000Z,9.45
2022-10-31T07:55:05.771Z,8.68
2022-10-31T07:57:34.664Z,8.80
2022-10-31T08:00:02.482Z,7.93
2022-10-31T08:02:29.906Z,8.23
2022-10-31T08:05:00.294Z,8.35
2022-10-31T08:07:29.469Z,9.02
2022-10-31T08:09:57.444Z,9.07
2022-10-31T08:12:26.235Z,8.88
2022-10-31T08:14:53.659Z,8.55
2022-10-31T08:17:21.225Z,8.93
2022-10-31T08:19:48.628Z,8.43
2022-10-31T08:22:16.086Z,8.63
2022-10-31T08:24:43.509Z,9.23
2022-10-31T08:27:10.952Z,8.45
2022-10-31T08:29:39.757Z,9.25
2022-10-31T08:32:07.172Z,9.05
2022-10-31T08:34:34.637Z,9.55
2022-10-31T08:37:02.073Z,9.30
2022-10-31T08:39:29.478Z,9.95
2022-10-31T08:41:56.933Z,9.50
2022-10-31T08:44:24.555Z,9.98
2022-10-31T08:46:53.368Z,10.07
2022-10-31T08:49:20.805Z,10.00
2022-10-31T08:51:49.874Z,10.20
2022-10-31T08:54:17.363Z,9.85
2022-10-31T08:56:44.805Z,9.02
2022-10-31T08:59:12.258Z,9.80
2022-10-31T09:01:39.837Z,11.40
2022-10-31T09:04:08.699Z,11.15
2022-10-31T09:06:38.020Z,11.10
2022-10-31T09:09:05.731Z,10.07
2022-10-31T09:11:33.204Z,10.07
2022-10-31T09:14:00.695Z,10.05
2022-10-31T09:16:28.116Z,8.75
2022-10-31T09:18:55.555Z,9.23
2022-10-31T09:21:24.355Z,8.95
2022-10-31T09:23:54.039Z,9.45
2022-10-31T09:26:21.472Z,9.40
2022-10-31T09:28:48.921Z,9.07
2022-10-31T09:31:16.394Z,9.70
2022-10-31T09:33:44.046Z,10.18
2022-10-31T09:36:11.480Z,9.82
2022-10-31T09:38:40.227Z,9.25
2022-10-31T09:41:20.550Z,8.65
2022-10-31T09:43:56.111Z,8.75
2022-10-31T09:46:36.862Z,8.77
2022-10-31T09:49:26.560Z,8.32
2022-10-31T09:52:02.183Z,7.38
2022-10-31T09:54:36.693Z,8.57
2022-10-31T09:57:05.387Z,8.07
2022-10-31T09:59:36.266Z,8.52
2022-10-31T10:02:08.105Z,8.57
2022-10-31T10:04:41.552Z,9.43
2022-10-31T10:07:18.911Z,9.00
2022-10-31T10:09:47.860Z,10.00
2022-10-31T10:12:20.523Z,10.13
2022-10-31T10:15:08.526Z,9.15
2022-10-31T10:17:44.228Z,8.98
2022-10-31T10:20:32.314Z,9.15
2022-10-31T10:23:23.402Z,9.27
2022-10-31T10:25:57.283Z,9.32
2022-10-31T10:28:28.172Z,9.52
2022-10-31T10:31:02.363Z,9.85
2022-10-31T10:33:35.583Z,8.18
2022-10-31T10:36:07.516Z,9.25
2022-10-31T10:38:39.190Z,8.70
2022-10-31T10:41:14.559Z,10.80
2022-10-31T10:43:42.026Z,9.15
2022-10-31T10:46:37.185Z,8.45
2022-10-31T10:49:14.507Z,9.15
2022-10-31T10:52:01.891Z,8.38
2022-10-31T10:54:47.353Z,8.82
2022-10-31T10:57:24.794Z,8.82
2022-10-31T10:59:53.355Z,8.85
2022-10-31T11:02:24.522Z,8.75
2022-10-31T11:04:54.466Z,9.18
2022-10-31T11:07:21.954Z,9.98
2022-10-31T11:09:49.891Z,8.88
2022-10-31T11:12:23.012Z,8.63
2022-10-31T11:14:55.313Z,9.70
2022-10-31T11:17:29.783Z,8.93
2022-10-31T11:20:06.296Z,8.43
2022-10-31T11:22:33.928Z,8.77
2022-10-31T11:25:01.392Z,8.88
2022-10-31T11:27:30.207Z,8.27
2022-10-31T11:30:07.882Z,7.82
2022-10-31T11:32:35.747Z,7.68
2022-10-31T11:35:11.107Z,7.68
2022-10-31T11:37:44.344Z,7.53
2022-10-31T11:40:18.943Z,7.40
2022-10-31T11:42:48.595Z,8.23
2022-10-31T11:45:18.516Z,6.50
2022-10-31T11:47:49.495Z,7.05
2022-10-31T11:50:22.880Z,7.97
2022-10-31T11:52:51.839Z,7.25
2022-10-31T11:55:32.774Z,7.53
2022-10-31T11:58:01.944Z,7.13
2022-10-31T12:00:31.621Z,7.30
2022-10-31T12:03:28.770Z,7.35
2022-10-31T12:06:02.481Z,7.18
2022-10-31T12:08:32.396Z,7.43
2022-10-31T12:11:10.653Z,7.30
2022-10-31T12:13:44.723Z,7.10
2022-10-31T12:16:19.515Z,6.77
2022-10-31T12:21:45.723Z,7.47
2022-10-31T12:24:28.311Z,6.68
2022-10-31T12:27:05.111Z,7.47
2022-10-31T12:29:59.564Z,6.20
2022-10-31T12:32:35.434Z,6.65
2022-10-31T12:35:31.926Z,6.40
2022-10-31T12:38:10.519Z,6.35
2022-10-31T12:40:54.305Z,7.40
2022-10-31T12:43:37.237Z,6.63
2022-10-31T12:46:11.696Z,6.03
2022-10-31T12:49:15.503Z,5.93
2022-10-31T12:51:52.350Z,5.38
2022-10-31T12:54:42.731Z,6.18
2022-10-31T12:57:24.683Z,5.60
2022-10-31T12:59:58.998Z,5.90
2022-10-31T13:02:31.690Z,5.63
2022-10-31T13:05:03.326Z,6.07
2022-10-31T13:07:36.516Z,5.07
2022-10-31T13:10:11.004Z,5.40
2022-10-31T13:12:39.429Z,5.70
2022-10-31T13:15:16.747Z,5.38
2022-10-31T13:17:48.936Z,5.57
2022-10-31T13:20:26.517Z,5.03
2022-10-31T13:22:58.311Z,5.35
2022-10-31T13:25:30.005Z,5.40
2022-10-31T13:28:01.339Z,5.38
2022-10-31T13:30:31.621Z,4.75
2022-10-31T13:33:06.708Z,5.35
2022-10-31T13:35:40.980Z,6.03
2022-10-31T13:38:20.373Z,4.90
2022-10-31T13:40:56.609Z,4.82
2022-10-31T13:43:41.119Z,5.60
2022-10-31T13:46:25.543Z,4.85
2022-10-31T13:48:54.320Z,4.78
2022-10-31T13:51:29.232Z,4.95
2022-10-31T13:54:01.702Z,4.68
2022-10-31T13:56:32.219Z,4.93
2022-10-31T13:59:03.464Z,5.03
2022-10-31T14:01:31.880Z,5.05
2022-10-31T14:04:13.060Z,4.82
2022-10-31T14:06:49.963Z,4.88
2022-10-31T14:09:28.307Z,4.95
2022-10-31T14:11:57.561Z,4.95
2022-10-31T14:14:32.031Z,4.40
2022-10-31T14:17:00.308Z,5.10
2022-10-31T14:19:29.500Z,4.82
2022-10-31T14:21:57.062Z,4.97
2022-10-31T14:24:38.732Z,5.00
2022-10-31T14:27:37.727Z,5.10
2022-10-31T14:30:20.386Z,4.60
2022-10-31T14:32:53.117Z,4.90
2022-10-31T14:35:23.906Z,5.30
2022-10-31T14:38:10.816Z,4.88
2022-10-31T14:40:51.190Z,4.82
2022-10-31T14:43:43.838Z,5.25
2022-10-31T14:46:19.571Z,5.15
2022-10-31T14:49:07.927Z,5.30
2022-10-31T14:51:40.559Z,4.38
2022-10-31T14:54:14.179Z,4.70
2022-10-31T14:56:50.694Z,4.80
2022-10-31T14:59:26.422Z,4.93
2022-10-31T15:02:00.379Z,5.03
2022-10-31T15:04:30.892Z,5.10
2022-10-31T15:07:08.805Z,5.22
2022-10-31T15:09:38.614Z,5.18
2022-10-31T15:12:24.707Z,5.13
2022-10-31T15:14:52.557Z,5.72
2022-10-31T15:17:21.577Z,5.05
2022-10-31T15:19:49.343Z,5.10
2022-10-31T15:22:19.635Z,5.18
2022-10-31T15:24:48.589Z,4.78
2022-10-31T15:27:19.537Z,5.22
2022-10-31T15:29:51.761Z,5.03
2022-10-31T15:32:23.511Z,4.80
2022-10-31T15:34:54.153Z,4.72
2022-10-31T15:37:25.791Z,4.57
2022-10-31T15:39:54.731Z,4.82
2022-10-31T15:42:26.355Z,4.60
2022-10-31T15:45:03.795Z,4.60
2022-10-31T15:47:33.218Z,4.22
2022-10-31T15:50:02.556Z,4.45
2022-10-31T15:52:34.578Z,5.53
2022-10-31T15:55:05.264Z,4.65
2022-10-31T15:57:35.958Z,4.25
2022-10-31T16:00:03.774Z,4.80
2022-10-31T16:02:31.437Z,4.28
2022-10-31T16:05:01.442Z,4.15
2022-10-31T16:07:31.386Z,4.75
2022-10-31T16:10:00.404Z,4.32
2022-10-31T16:12:36.736Z,3.85
2022-10-31T16:15:06.101Z,4.60
2022-10-31T16:17:36.337Z,4.68
2022-10-31T16:20:06.705Z,3.92
2022-10-31T16:22:37.516Z,3.85
2022-10-31T16:25:12.033Z,4.13
2022-10-31T16:27:40.743Z,3.80
2022-10-31T16:30:36.867Z,3.53
2022-10-31T16:33:04.640Z,3.70
2022-10-31T16:35:35.159Z,4.05
2022-10-31T16:38:04.778Z,3.53
2022-10-31T16:40:33.081Z,3.53
2022-10-31T16:43:02.580Z,3.53
2022-10-31T16:45:32.615Z,3.50
2022-10-31T16:48:05.658Z,3.55
2022-10-31T16:50:33.548Z,3.53
2022-10-31T16:53:13.306Z,3.85
2022-10-31T16:55:47.394Z,3.45
2022-10-31T16:58:21.324Z,3.95
2022-10-31T17:00:49.054Z,3.75
2022-10-31T17:03:16.671Z,4.07
2022-10-31T17:05:44.478Z,3.30
2022-10-31T17:08:12.548Z,3.83
2022-10-31T17:10:41.508Z,3.60
2022-10-31T17:13:17.956Z,3.30
2022-10-31T17:15:49.297Z,3.22
2022-10-31T17:18:20.559Z,3.28
2022-10-31T17:23:19.895Z,3.47
2022-10-31T17:25:48.297Z,3.60
2022-10-31T17:28:17.216Z,3.10
2022-10-31T17:30:45.225Z,3.35
2022-10-31T17:33:21.474Z,3.70
2022-10-31T17:35:48.940Z,3.85
2022-10-31T17:38:16.424Z,3.42
2022-10-31T17:40:44.000Z,3.10
2022-10-31T17:43:12.527Z,3.15
2022-10-31T17:45:42.799Z,3.35
2022-10-31T17:48:12.409Z,3.78
2022-10-31T17:50:39.915Z,3.40
2022-10-31T17:53:07.355Z,3.63
2022-10-31T17:55:37.056Z,3.70
2022-10-31T17:58:05.190Z,3.47
2022-10-31T18:00:32.803Z,3.35
2022-10-31T18:03:03.070Z,4.05
2022-10-31T18:05:30.809Z,3.90
2022-10-31T18:08:02.395Z,3.13
2022-10-31T18:10:31.080Z,3.60
2022-10-31T18:12:58.695Z,3.50
2022-10-31T18:15:26.442Z,3.35
2022-10-31T18:17:53.882Z,4.20
2022-10-31T18:20:23.208Z,3.75
2022-10-31T18:22:50.669Z,3.60
2022-10-31T18:25:18.231Z,3.28
2022-10-31T18:27:45.670Z,3.85
2022-10-31T18:30:13.700Z,3.90
2022-10-31T18:32:41.172Z,3.38
2022-10-31T18:35:08.982Z,3.95
2022-10-31T18:37:37.901Z,4.55
2022-10-31T18:40:06.009Z,3.70
2022-10-31T18:42:38.281Z,4.35
2022-10-31T18:45:11.856Z,3.65
2022-10-31T18:47:44.615Z,3.60
2022-10-31T18:50:12.267Z,3.85
2022-10-31T18:52:41.035Z,4.03
2022-10-31T18:55:09.482Z,3.60
2022-10-31T18:57:37.454Z,3.35
2022-10-31T19:00:06.212Z,3.67
2022-10-31T19:02:33.982Z,3.20
2022-10-31T19:05:01.464Z,3.60
2022-10-31T19:07:28.912Z,3.50
2022-10-31T19:09:57.734Z,3.28
2022-10-31T19:12:25.251Z,3.38
2022-10-31T19:14:52.815Z,3.83
2022-10-31T19:17:20.874Z,3.20
2022-10-31T19:19:48.307Z,3.38
2022-10-31T19:22:15.779Z,3.08
2022-10-31T19:24:43.268Z,3.92
2022-10-31T19:27:12.054Z,3.22
2022-10-31T19:29:41.997Z,3.33
2022-10-31T19:32:10.603Z,3.40
2022-10-31T19:34:38.024Z,3.03
2022-10-31T19:37:05.462Z,4.30
2022-10-31T19:39:32.932Z,3.10
2022-10-31T19:42:00.393Z,3.50
2022-10-31T19:44:30.621Z,3.50
2022-10-31T19:46:58.074Z,3.80
2022-10-31T19:49:25.894Z,3.45
2022-10-31T19:51:53.929Z,3.20
2022-10-31T19:54:21.680Z,3.35
2022-10-31T19:56:49.234Z,3.47
2022-10-31T19:59:16.653Z,3.28
2022-10-31T20:01:45.513Z,3.60
2022-10-31T20:04:13.223Z,3.00
2022-10-31T20:06:41.990Z,3.42
2022-10-31T20:09:13.401Z,3.03
2022-10-31T20:11:41.804Z,3.38
2022-10-31T20:14:12.413Z,3.60
2022-10-31T20:16:39.919Z,3.58
2022-10-31T20:19:09.153Z,3.47
2022-10-31T20:21:39.571Z,3.47
2022-10-31T20:24:09.360Z,4.15
2022-10-31T20:26:40.550Z,3.25
2022-10-31T20:29:08.590Z,3.65
2022-10-31T20:31:37.275Z,2.78
2022-10-31T20:34:04.839Z,3.55
2022-10-31T20:36:33.742Z,3.92
2022-10-31T20:39:01.329Z,3.40
2022-10-31T20:41:28.817Z,3.83
2022-10-31T20:43:56.361Z,3.50
2022-10-31T20:46:26.412Z,3.67
2022-10-31T20:48:55.034Z,3.78
2022-10-31T20:51:24.312Z,4.22
2022-10-31T20:53:54.972Z,4.45
2022-10-31T20:56:24.338Z,3.53
2022-10-31T20:58:52.080Z,3.90
2022-10-31T21:01:21.168Z,3.72
2022-10-31T21:03:49.649Z,4.05
2022-10-31T21:06:17.963Z,3.88
2022-10-31T21:08:46.194Z,4.55
2022-10-31T21:11:17.013Z,3.88
2022-10-31T21:13:46.395Z,3.38
2022-10-31T21:16:15.533Z,3.90
2022-10-31T21:18:44.577Z,3.83
2022-10-31T21:21:13.397Z,3.83
2022-10-31T21:23:41.535Z,4.22
2022-10-31T21:26:11.860Z,4.70
2022-10-31T21:28:41.327Z,3.58
2022-10-31T21:31:10.973Z,4.05
2022-10-31T21:33:39.127Z,3.78
2022-10-31T21:36:07.384Z,3.92
2022-10-31T21:38:35.850Z,4.45
2022-10-31T21:41:04.747Z,4.00
2022-10-31T21:43:33.161Z,3.65
2022-10-31T21:46:04.923Z,3.60
2022-10-31T21:48:33.104Z,4.10
2022-10-31T21:51:04.289Z,3.85
2022-10-31T21:53:49.521Z,3.38
2022-10-31T21:56:17.423Z,3.95
2022-10-31T21:58:44.894Z,4.05
2022-10-31T22:01:13.779Z,4.78
2022-10-31T22:03:42.597Z,3.72
2022-10-31T22:06:11.706Z,3.60
2022-10-31T22:08:40.608Z,3.50
2022-10-31T22:11:09.580Z,3.65
2022-10-31T22:13:38.375Z,3.80
2022-10-31T22:16:08.536Z,3.88
2022-10-31T22:18:38.277Z,4.32
2022-10-31T22:21:07.634Z,4.28
2022-10-31T22:23:35.063Z,3.83
2022-10-31T22:26:07.058Z,3.75
2022-10-31T22:28:35.187Z,3.67
2022-10-31T22:31:06.050Z,4.13
2022-10-31T22:33:34.233Z,4.57
2022-10-31T22:36:03.844Z,4.00
2022-10-31T22:38:31.316Z,4.13
2022-10-31T22:40:58.799Z,3.75
2022-10-31T22:43:26.402Z,4.07
2022-10-31T22:46:00.445Z,3.53
2022-10-31T22:48:27.938Z,3.35
2022-10-31T22:50:55.737Z,3.67
2022-10-31T22:53:24.593Z,4.53
2022-10-31T22:55:52.215Z,3.70
2022-10-31T22:58:19.674Z,4.07
2022-10-31T23:00:47.180Z,3.70
2022-10-31T23:03:14.902Z,4.03
2022-10-31T23:05:42.343Z,3.88
2022-10-31T23:08:09.763Z,4.28
2022-10-31T23:10:42.025Z,3.50
2022-10-31T23:13:27.326Z,4.00
2022-10-31T23:15:54.780Z,3.85
2022-10-31T23:18:44.254Z,4.40
2022-10-31T23:21:30.233Z,3.88
2022-10-31T23:23:58.713Z,3.88
2022-10-31T23:26:45.204Z,3.50
2022-10-31T23:29:12.655Z,4.00
2022-10-31T23:31:40.146Z,3.53
2022-10-31T23:34:07.610Z,3.72
2022-10-31T23:36:35.134Z,3.88
2022-10-31T23:39:02.644Z,3.83
2022-10-31T23:41:31.434Z,3.90
2022-10-31T23:43:59.172Z,3.85
2022-10-31T23:46:26.868Z,3.97
2022-10-31T23:48:54.354Z,4.28
2022-10-31T23:51:21.900Z,10.07
2022-10-31T23:53:49.890Z,3.65
2022-10-31T23:56:17.389Z,3.97
2022-10-31T23:58:46.173Z,3.78
